sensor_id;sensor_type;location;lat;lon;timestamp;pressure;altitude;pressure_sealevel;temperature;humidity
72685;BME280;61365;52.162;4.500;2023-01-16T00:02:24;99472.81;;;3.13;95.33
72685;BME280;61365;52.162;4.500;2023-01-16T00:04:54;99460.69;;;3.11;95.41
72685;BME280;61365;52.162;4.500;2023-01-16T00:07:20;99442.59;;;3.14;94.97
72685;BME280;61365;52.162;4.500;2023-01-16T00:09:46;99452.03;;;3.09;95.56
72685;BME280;61365;52.162;4.500;2023-01-16T00:12:13;99438.19;;;3.08;95.00
72685;BME280;61365;52.162;4.500;2023-01-16T00:14:39;99431.34;;;3.12;95.83
72685;BME280;61365;52.162;4.500;2023-01-16T00:17:05;99434.72;;;3.06;95.29
72685;BME280;61365;52.162;4.500;2023-01-16T00:19:32;99430.44;;;3.07;95.43
72685;BME280;61365;52.162;4.500;2023-01-16T00:21:58;99430.44;;;3.07;95.52
72685;BME280;61365;52.162;4.500;2023-01-16T00:24:24;99418.28;;;3.04;95.74
72685;BME280;61365;52.162;4.500;2023-01-16T00:26:51;99415.72;;;3.01;95.53
72685;BME280;61365;52.162;4.500;2023-01-16T00:29:17;99416.59;;;3.05;96.11
72685;BME280;61365;52.162;4.500;2023-01-16T00:31:44;99402.75;;;3.01;96.63
72685;BME280;61365;52.162;4.500;2023-01-16T00:34:12;99401.88;;;3.05;96.50
72685;BME280;61365;52.162;4.500;2023-01-16T00:36:39;99398.41;;;2.97;96.38
72685;BME280;61365;52.162;4.500;2023-01-16T00:39:05;99384.53;;;2.93;95.93
72685;BME280;61365;52.162;4.500;2023-01-16T00:41:32;99384.59;;;3.03;96.08
72685;BME280;61365;52.162;4.500;2023-01-16T00:43:58;99376.81;;;3.04;96.20
72685;BME280;61365;52.162;4.500;2023-01-16T00:46:25;99378.56;;;2.99;95.94
72685;BME280;61365;52.162;4.500;2023-01-16T00:48:52;99367.28;;;2.94;96.06
72685;BME280;61365;52.162;4.500;2023-01-16T00:51:18;99358.66;;;2.99;96.15
72685;BME280;61365;52.162;4.500;2023-01-16T00:53:45;99363.88;;;3.03;95.97
72685;BME280;61365;52.162;4.500;2023-01-16T00:56:11;99355.22;;;2.96;96.00
72685;BME280;61365;52.162;4.500;2023-01-16T00:58:37;99358.66;;;2.99;96.30
72685;BME280;61365;52.162;4.500;2023-01-16T01:01:04;99342.22;;;2.93;96.26
72685;BME280;61365;52.162;4.500;2023-01-16T01:03:32;99333.59;;;2.94;96.59
72685;BME280;61365;52.162;4.500;2023-01-16T01:05:58;99327.50;;;2.89;96.67
72685;BME280;61365;52.162;4.500;2023-01-16T01:08:25;99317.16;;;2.90;96.86
72685;BME280;61365;52.162;4.500;2023-01-16T01:10:51;99312.84;;;2.86;96.12
72685;BME280;61365;52.162;4.500;2023-01-16T01:13:17;99306.78;;;2.85;97.23
72685;BME280;61365;52.162;4.500;2023-01-16T01:15:44;99301.59;;;2.89;97.13
72685;BME280;61365;52.162;4.500;2023-01-16T01:18:10;99304.22;;;2.92;97.21
72685;BME280;61365;52.162;4.500;2023-01-16T01:20:36;99293.84;;;2.89;96.71
72685;BME280;61365;52.162;4.500;2023-01-16T01:23:03;99290.38;;;2.87;97.47
72685;BME280;61365;52.162;4.500;2023-01-16T01:25:29;99289.50;;;2.86;96.76
72685;BME280;61365;52.162;4.500;2023-01-16T01:27:56;99291.22;;;2.84;96.95
72685;BME280;61365;52.162;4.500;2023-01-16T01:30:22;99290.38;;;2.85;97.45
72685;BME280;61365;52.162;4.500;2023-01-16T01:32:49;99292.13;;;2.91;97.08
72685;BME280;61365;52.162;4.500;2023-01-16T01:35:15;99293.81;;;2.90;96.54
72685;BME280;61365;52.162;4.500;2023-01-16T01:37:43;99281.78;;;2.97;96.73
72685;BME280;61365;52.162;4.500;2023-01-16T01:40:10;99276.59;;;2.95;96.60
72685;BME280;61365;52.162;4.500;2023-01-16T01:42:38;99271.38;;;2.91;96.10
72685;BME280;61365;52.162;4.500;2023-01-16T01:45:16;99260.16;;;2.89;96.33
72685;BME280;61365;52.162;4.500;2023-01-16T01:50:30;99249.75;;;2.82;97.41
72685;BME280;61365;52.162;4.500;2023-01-16T01:53:11;99236.78;;;2.79;97.01
72685;BME280;61365;52.162;4.500;2023-01-16T01:55:44;99232.47;;;2.81;97.37
72685;BME280;61365;52.162;4.500;2023-01-16T01:58:15;99229.03;;;2.76;97.88
72685;BME280;61365;52.162;4.500;2023-01-16T02:00:50;99221.25;;;2.78;97.74
72685;BME280;61365;52.162;4.500;2023-01-16T02:03:29;99222.09;;;2.81;97.94
72685;BME280;61365;52.162;4.500;2023-01-16T02:06:02;99217.81;;;2.87;98.05
72685;BME280;61365;52.162;4.500;2023-01-16T02:08:34;99208.31;;;2.84;98.27
72685;BME280;61365;52.162;4.500;2023-01-16T02:11:12;99212.66;;;2.91;97.96
72685;BME280;61365;52.162;4.500;2023-01-16T02:13:59;99197.97;;;2.93;98.13
72685;BME280;61365;52.162;4.500;2023-01-16T02:16:28;99193.69;;;3.02;97.60
72685;BME280;61365;52.162;4.500;2023-01-16T02:23:18;99202.31;;;3.05;97.93
72685;BME280;61365;52.162;4.500;2023-01-16T02:43:12;99164.34;;;3.12;97.11
72685;BME280;61365;52.162;4.500;2023-01-16T02:45:54;99145.34;;;3.14;96.67
72685;BME280;61365;52.162;4.500;2023-01-16T02:51:34;99137.56;;;3.10;96.78
72685;BME280;61365;52.162;4.500;2023-01-16T02:54:23;99121.16;;;3.08;97.02
72685;BME280;61365;52.162;4.500;2023-01-16T02:57:05;99118.56;;;3.08;97.09
72685;BME280;61365;52.162;4.500;2023-01-16T02:59:36;99104.72;;;3.06;96.78
72685;BME280;61365;52.162;4.500;2023-01-16T03:02:06;99104.72;;;3.04;96.43
72685;BME280;61365;52.162;4.500;2023-01-16T03:04:41;99086.59;;;3.06;96.40
72685;BME280;61365;52.162;4.500;2023-01-16T03:07:38;99080.53;;;3.04;96.39
72685;BME280;61365;52.162;4.500;2023-01-16T03:14:22;99068.44;;;2.98;96.61
72685;BME280;61365;52.162;4.500;2023-01-16T03:16:30;99064.09;;;2.91;97.41
72685;BME280;61365;52.162;4.500;2023-01-16T03:19:17;99069.28;;;2.88;97.02
72685;BME280;61365;52.162;4.500;2023-01-16T03:27:49;99053.72;;;2.78;97.38
72685;BME280;61365;52.162;4.500;2023-01-16T03:33:08;99040.75;;;2.78;96.98
72685;BME280;61365;52.162;4.500;2023-01-16T03:36:06;99021.78;;;2.75;96.93
72685;BME280;61365;52.162;4.500;2023-01-16T03:38:45;99017.47;;;2.75;97.36
72685;BME280;61365;52.162;4.500;2023-01-16T03:41:19;99019.16;;;2.68;96.64
72685;BME280;61365;52.162;4.500;2023-01-16T03:43:54;99011.41;;;2.70;96.96
72685;BME280;61365;52.162;4.500;2023-01-16T03:46:31;98994.13;;;2.70;97.01
72685;BME280;61365;52.162;4.500;2023-01-16T03:49:09;99000.19;;;2.73;96.99
72685;BME280;61365;52.162;4.500;2023-01-16T03:51:45;98986.38;;;2.77;97.43
72685;BME280;61365;52.162;4.500;2023-01-16T03:57:30;98971.69;;;2.80;96.88
72685;BME280;61365;52.162;4.500;2023-01-16T04:00:01;98954.44;;;2.75;97.12
72685;BME280;61365;52.162;4.500;2023-01-16T04:02:52;98954.44;;;2.70;96.86
72685;BME280;61365;52.162;4.500;2023-01-16T04:05:32;98944.94;;;2.69;96.91
72685;BME280;61365;52.162;4.500;2023-01-16T04:08:19;98940.63;;;2.79;96.52
72685;BME280;61365;52.162;4.500;2023-01-16T04:10:55;98931.13;;;2.67;96.74
72685;BME280;61365;52.162;4.500;2023-01-16T04:13:27;98918.19;;;2.73;96.99
72685;BME280;61365;52.162;4.500;2023-01-16T04:16:00;98915.56;;;2.72;96.89
72685;BME280;61365;52.162;4.500;2023-01-16T04:18:34;98903.50;;;2.83;96.88
72685;BME280;61365;52.162;4.500;2023-01-16T04:21:05;98888.81;;;2.85;96.31
72685;BME280;61365;52.162;4.500;2023-01-16T04:23:34;98884.50;;;2.78;96.28
72685;BME280;61365;52.162;4.500;2023-01-16T04:26:01;98868.09;;;2.85;96.18
72685;BME280;61365;52.162;4.500;2023-01-16T04:28:28;98863.72;;;3.04;95.18
72685;BME280;61365;52.162;4.500;2023-01-16T04:30:54;98862.03;;;2.84;94.87
72685;BME280;61365;52.162;4.500;2023-01-16T04:33:21;98855.13;;;2.66;96.10
72685;BME280;61365;52.162;4.500;2023-01-16T04:35:47;98846.50;;;2.75;96.46
72685;BME280;61365;52.162;4.500;2023-01-16T04:38:14;98840.44;;;2.79;96.24
72685;BME280;61365;52.162;4.500;2023-01-16T04:40:40;98833.56;;;2.74;96.15
72685;BME280;61365;52.162;4.500;2023-01-16T04:43:06;98823.19;;;2.67;96.49
72685;BME280;61365;52.162;4.500;2023-01-16T04:45:33;98817.97;;;2.97;96.32
72685;BME280;61365;52.162;4.500;2023-01-16T04:47:59;98807.66;;;2.77;95.69
72685;BME280;61365;52.162;4.500;2023-01-16T04:50:25;98802.47;;;2.77;96.44
72685;BME280;61365;52.162;4.500;2023-01-16T04:52:52;98788.66;;;2.75;95.90
72685;BME280;61365;52.162;4.500;2023-01-16T04:55:21;98787.81;;;2.71;95.29
72685;BME280;61365;52.162;4.500;2023-01-16T04:57:47;98782.63;;;2.68;95.75
72685;BME280;61365;52.162;4.500;2023-01-16T05:00:14;98765.31;;;2.87;95.53
72685;BME280;61365;52.162;4.500;2023-01-16T05:02:41;98754.97;;;2.79;95.42
72685;BME280;61365;52.162;4.500;2023-01-16T05:05:07;98751.47;;;2.90;95.40
72685;BME280;61365;52.162;4.500;2023-01-16T05:07:34;98736.84;;;2.84;94.88
72685;BME280;61365;52.162;4.500;2023-01-16T05:10:00;98732.56;;;2.75;95.83
72685;BME280;61365;52.162;4.500;2023-01-16T05:12:26;98726.53;;;2.67;95.74
72685;BME280;61365;52.162;4.500;2023-01-16T05:14:53;98720.47;;;2.71;96.72
72685;BME280;61365;52.162;4.500;2023-01-16T05:17:19;98704.09;;;2.60;97.12
72685;BME280;61365;52.162;4.500;2023-01-16T05:19:50;98694.56;;;2.69;96.98
72685;BME280;61365;52.162;4.500;2023-01-16T05:22:17;98690.25;;;2.72;95.90
72685;BME280;61365;52.162;4.500;2023-01-16T05:24:44;98675.63;;;2.58;96.34
72685;BME280;61365;52.162;4.500;2023-01-16T05:27:10;98664.34;;;2.76;96.09
72685;BME280;61365;52.162;4.500;2023-01-16T05:29:36;98656.53;;;2.79;95.23
72685;BME280;61365;52.162;4.500;2023-01-16T05:32:03;98647.94;;;2.66;95.25
72685;BME280;61365;52.162;4.500;2023-01-16T05:34:29;98638.44;;;2.68;95.88
72685;BME280;61365;52.162;4.500;2023-01-16T05:36:56;98635.75;;;2.90;94.76
72685;BME280;61365;52.162;4.500;2023-01-16T05:39:22;98632.22;;;3.07;94.32
72685;BME280;61365;52.162;4.500;2023-01-16T05:41:48;98621.09;;;2.89;93.97
72685;BME280;61365;52.162;4.500;2023-01-16T05:44:15;98616.75;;;2.91;94.27
72685;BME280;61365;52.162;4.500;2023-01-16T05:46:41;98602.06;;;2.98;93.62
72685;BME280;61365;52.162;4.500;2023-01-16T05:49:08;98599.38;;;3.12;93.28
72685;BME280;61365;52.162;4.500;2023-01-16T05:51:34;98585.56;;;3.05;94.06
72685;BME280;61365;52.162;4.500;2023-01-16T05:54:00;98591.59;;;3.10;93.16
72685;BME280;61365;52.162;4.500;2023-01-16T05:56:28;98581.31;;;3.01;93.78
72685;BME280;61365;52.162;4.500;2023-01-16T05:58:54;98575.34;;;2.88;94.90
72685;BME280;61365;52.162;4.500;2023-01-16T06:01:23;98567.56;;;2.88;94.68
72685;BME280;61365;52.162;4.500;2023-01-16T06:03:49;98568.44;;;2.85;95.48
72685;BME280;61365;52.162;4.500;2023-01-16T06:06:15;98564.94;;;2.91;94.99
72685;BME280;61365;52.162;4.500;2023-01-16T06:08:42;98549.25;;;3.13;94.33
72685;BME280;61365;52.162;4.500;2023-01-16T06:11:08;98545.03;;;2.96;95.51
72685;BME280;61365;52.162;4.500;2023-01-16T06:13:34;98540.75;;;2.94;95.03
72685;BME280;61365;52.162;4.500;2023-01-16T06:16:00;98533.84;;;2.93;96.04
72685;BME280;61365;52.162;4.500;2023-01-16T06:18:27;98535.59;;;2.91;96.82
72685;BME280;61365;52.162;4.500;2023-01-16T06:20:53;98532.97;;;2.95;97.13
72685;BME280;61365;52.162;4.500;2023-01-16T06:23:20;98519.16;;;2.95;96.85
72685;BME280;61365;52.162;4.500;2023-01-16T06:25:49;98523.50;;;2.90;97.92
72685;BME280;61365;52.162;4.500;2023-01-16T06:28:16;98508.00;;;2.85;98.10
72685;BME280;61365;52.162;4.500;2023-01-16T06:30:42;98504.59;;;2.80;98.72
72685;BME280;61365;52.162;4.500;2023-01-16T06:33:08;98490.75;;;2.79;98.95
72685;BME280;61365;52.162;4.500;2023-01-16T06:35:35;98488.03;;;2.96;98.97
72685;BME280;61365;52.162;4.500;2023-01-16T06:38:01;98477.69;;;2.93;98.50
72685;BME280;61365;52.162;4.500;2023-01-16T06:40:27;98479.34;;;3.05;97.84
72685;BME280;61365;52.162;4.500;2023-01-16T06:42:56;98470.00;;;2.85;98.93
72685;BME280;61365;52.162;4.500;2023-01-16T06:45:22;98462.16;;;2.93;99.84
72685;BME280;61365;52.162;4.500;2023-01-16T06:47:51;98452.63;;;2.98;99.69
72685;BME280;61365;52.162;4.500;2023-01-16T06:50:18;98441.47;;;2.92;100.00
72685;BME280;61365;52.162;4.500;2023-01-16T06:52:45;98443.09;;;3.04;99.21
72685;BME280;61365;52.162;4.500;2023-01-16T06:55:13;98448.25;;;3.04;99.89
72685;BME280;61365;52.162;4.500;2023-01-16T06:57:40;98427.59;;;2.94;99.97
72685;BME280;61365;52.162;4.500;2023-01-16T07:00:07;98425.03;;;2.93;100.00
72685;BME280;61365;52.162;4.500;2023-01-16T07:02:33;98408.63;;;2.92;100.00
72685;BME280;61365;52.162;4.500;2023-01-16T07:05:07;98413.78;;;2.97;100.00
72685;BME280;61365;52.162;4.500;2023-01-16T07:07:34;98404.28;;;2.96;100.00
72685;BME280;61365;52.162;4.500;2023-01-16T07:10:02;98409.44;;;2.97;100.00
72685;BME280;61365;52.162;4.500;2023-01-16T07:12:30;98387.00;;;2.96;100.00
72685;BME280;61365;52.162;4.500;2023-01-16T07:14:56;98373.28;;;2.88;100.00
72685;BME280;61365;52.162;4.500;2023-01-16T07:17:41;98371.50;;;2.90;100.00
72685;BME280;61365;52.162;4.500;2023-01-16T07:20:25;98352.59;;;2.83;100.00
72685;BME280;61365;52.162;4.500;2023-01-16T07:23:21;98353.44;;;2.85;100.00
72685;BME280;61365;52.162;4.500;2023-01-16T07:25:50;98341.25;;;2.97;99.52
72685;BME280;61365;52.162;4.500;2023-01-16T07:28:19;98333.34;;;3.06;98.88
72685;BME280;61365;52.162;4.500;2023-01-16T07:30:47;98331.78;;;2.91;98.69
72685;BME280;61365;52.162;4.500;2023-01-16T07:33:15;98315.38;;;2.94;98.75
72685;BME280;61365;52.162;4.500;2023-01-16T07:35:42;98311.91;;;2.93;98.83
72685;BME280;61365;52.162;4.500;2023-01-16T07:38:09;98304.19;;;2.89;98.94
72685;BME280;61365;52.162;4.500;2023-01-16T07:40:35;98306.72;;;2.93;99.68
72685;BME280;61365;52.162;4.500;2023-01-16T07:43:02;98292.91;;;2.94;98.50
72685;BME280;61365;52.162;4.500;2023-01-16T07:45:28;98298.88;;;2.99;98.48
72685;BME280;61365;52.162;4.500;2023-01-16T07:47:55;98273.78;;;3.03;98.46
72685;BME280;61365;52.162;4.500;2023-01-16T07:50:21;98246.91;;;3.15;98.23
72685;BME280;61365;52.162;4.500;2023-01-16T07:52:48;98249.59;;;3.06;98.13
72685;BME280;61365;52.162;4.500;2023-01-16T07:55:14;98251.38;;;3.02;98.16
72685;BME280;61365;52.162;4.500;2023-01-16T07:57:42;98236.44;;;3.23;97.62
72685;BME280;61365;52.162;4.500;2023-01-16T08:00:09;98231.34;;;3.15;97.83
72685;BME280;61365;52.162;4.500;2023-01-16T08:02:38;98241.88;;;3.01;99.01
72685;BME280;61365;52.162;4.500;2023-01-16T08:05:06;98236.47;;;3.20;97.99
72685;BME280;61365;52.162;4.500;2023-01-16T08:07:33;98230.41;;;3.19;97.99
72685;BME280;61365;52.162;4.500;2023-01-16T08:09:59;98214.03;;;3.19;97.92
72685;BME280;61365;52.162;4.500;2023-01-16T08:12:26;98201.13;;;3.14;97.99
72685;BME280;61365;52.162;4.500;2023-01-16T08:14:52;98203.72;;;3.12;98.05
72685;BME280;61365;52.162;4.500;2023-01-16T08:17:18;98192.59;;;3.04;98.52
72685;BME280;61365;52.162;4.500;2023-01-16T08:19:45;98178.03;;;2.97;98.40
72685;BME280;61365;52.162;4.500;2023-01-16T08:22:11;98185.59;;;3.14;98.75
72685;BME280;61365;52.162;4.500;2023-01-16T08:24:37;98162.34;;;3.06;98.86
72685;BME280;61365;52.162;4.500;2023-01-16T08:27:04;98168.22;;;3.19;98.58
72685;BME280;61365;52.162;4.500;2023-01-16T08:29:30;98148.69;;;2.95;99.53
72685;BME280;61365;52.162;4.500;2023-01-16T08:31:56;98170.91;;;3.13;98.40
72685;BME280;61365;52.162;4.500;2023-01-16T08:34:23;98148.31;;;3.21;98.32
72685;BME280;61365;52.162;4.500;2023-01-16T08:36:53;98146.69;;;3.15;98.28
72685;BME280;61365;52.162;4.500;2023-01-16T08:39:19;98155.28;;;3.18;98.30
72685;BME280;61365;52.162;4.500;2023-01-16T08:41:45;98136.44;;;3.08;98.74
72685;BME280;61365;52.162;4.500;2023-01-16T08:44:30;98128.63;;;3.09;98.87
72685;BME280;61365;52.162;4.500;2023-01-16T08:47:22;98126.88;;;3.13;99.28
72685;BME280;61365;52.162;4.500;2023-01-16T08:50:18;98120.00;;;3.09;98.74
72685;BME280;61365;52.162;4.500;2023-01-16T08:53:04;98125.16;;;3.10;99.61
72685;BME280;61365;52.162;4.500;2023-01-16T08:55:31;98125.16;;;3.12;99.02
72685;BME280;61365;52.162;4.500;2023-01-16T08:57:58;98110.56;;;3.05;99.91
72685;BME280;61365;52.162;4.500;2023-01-16T09:00:26;98123.47;;;3.06;99.37
72685;BME280;61365;52.162;4.500;2023-01-16T09:02:54;98108.72;;;3.13;99.38
72685;BME280;61365;52.162;4.500;2023-01-16T09:05:23;98100.84;;;3.19;98.59
72685;BME280;61365;52.162;4.500;2023-01-16T09:07:49;98089.63;;;3.17;99.58
72685;BME280;61365;52.162;4.500;2023-01-16T09:10:16;98092.31;;;3.12;98.94
72685;BME280;61365;52.162;4.500;2023-01-16T09:12:43;98076.59;;;3.23;99.79
72685;BME280;61365;52.162;4.500;2023-01-16T09:15:48;98074.03;;;3.22;98.82
72685;BME280;61365;52.162;4.500;2023-01-16T09:18:18;98086.06;;;3.24;98.86
72685;BME280;61365;52.162;4.500;2023-01-16T09:20:44;98063.75;;;3.15;99.26
72685;BME280;61365;52.162;4.500;2023-01-16T09:23:10;98067.19;;;3.16;99.66
72685;BME280;61365;52.162;4.500;2023-01-16T09:25:36;98066.38;;;3.14;100.00
72685;BME280;61365;52.162;4.500;2023-01-16T09:28:03;98053.25;;;3.23;100.00
72685;BME280;61365;52.162;4.500;2023-01-16T09:30:30;98057.66;;;3.18;99.29
72685;BME280;61365;52.162;4.500;2023-01-16T09:32:56;98055.09;;;3.17;98.94
72685;BME280;61365;52.162;4.500;2023-01-16T09:35:22;98048.16;;;3.19;99.39
72685;BME280;61365;52.162;4.500;2023-01-16T09:37:49;98046.22;;;3.30;99.07
72685;BME280;61365;52.162;4.500;2023-01-16T09:40:20;98034.28;;;3.23;99.33
72685;BME280;61365;52.162;4.500;2023-01-16T09:46:09;98027.38;;;3.22;100.00
72685;BME280;61365;52.162;4.500;2023-01-16T09:48:50;98031.56;;;3.29;99.97
72685;BME280;61365;52.162;4.500;2023-01-16T09:51:31;98015.03;;;3.36;99.53
72685;BME280;61365;52.162;4.500;2023-01-16T09:54:21;98011.72;;;3.28;99.84
72685;BME280;61365;52.162;4.500;2023-01-16T09:57:13;98012.38;;;3.39;99.92
72685;BME280;61365;52.162;4.500;2023-01-16T10:00:01;98000.31;;;3.38;99.25
72685;BME280;61365;52.162;4.500;2023-01-16T10:02:32;98002.06;;;3.38;100.00
72685;BME280;61365;52.162;4.500;2023-01-16T10:05:02;98003.13;;;3.26;99.67
72685;BME280;61365;52.162;4.500;2023-01-16T10:10:32;97978.94;;;3.25;100.00
72685;BME280;61365;52.162;4.500;2023-01-16T10:13:14;97974.53;;;3.30;100.00
72685;BME280;61365;52.162;4.500;2023-01-16T10:27:19;97960.78;;;3.27;100.00
72685;BME280;61365;52.162;4.500;2023-01-16T10:29:58;97953.69;;;3.37;100.00
72685;BME280;61365;52.162;4.500;2023-01-16T10:35:40;97945.97;;;3.32;100.00
72685;BME280;61365;52.162;4.500;2023-01-16T10:38:49;97942.47;;;3.36;100.00
72685;BME280;61365;52.162;4.500;2023-01-16T10:41:34;97941.47;;;3.42;100.00
72685;BME280;61365;52.162;4.500;2023-01-16T10:44:34;97944.16;;;3.37;100.00
72685;BME280;61365;52.162;4.500;2023-01-16T10:47:28;97933.84;;;3.36;100.00
72685;BME280;61365;52.162;4.500;2023-01-16T10:50:20;97924.34;;;3.35;100.00
72685;BME280;61365;52.162;4.500;2023-01-16T10:52:49;97919.91;;;3.41;100.00
72685;BME280;61365;52.162;4.500;2023-01-16T10:55:16;97914.75;;;3.40;100.00
72685;BME280;61365;52.162;4.500;2023-01-16T10:57:55;97914.78;;;3.38;100.00
72685;BME280;61365;52.162;4.500;2023-01-16T11:00:27;97912.22;;;3.37;100.00
72685;BME280;61365;52.162;4.500;2023-01-16T11:03:00;97909.47;;;3.43;100.00
72685;BME280;61365;52.162;4.500;2023-01-16T11:05:36;97903.41;;;3.45;100.00
72685;BME280;61365;52.162;4.500;2023-01-16T11:08:09;97897.34;;;3.45;100.00
72685;BME280;61365;52.162;4.500;2023-01-16T11:10:42;97888.47;;;3.57;100.00
72685;BME280;61365;52.162;4.500;2023-01-16T11:13:20;97887.84;;;3.45;100.00
72685;BME280;61365;52.162;4.500;2023-01-16T11:18:56;97876.53;;;3.50;100.00
72685;BME280;61365;52.162;4.500;2023-01-16T11:21:50;97865.25;;;3.52;100.00
72685;BME280;61365;52.162;4.500;2023-01-16T11:24:28;97871.91;;;3.66;100.00
72685;BME280;61365;52.162;4.500;2023-01-16T11:26:59;97862.47;;;3.62;100.00
72685;BME280;61365;52.162;4.500;2023-01-16T11:29:29;97863.09;;;3.73;100.00
72685;BME280;61365;52.162;4.500;2023-01-16T11:32:06;97866.66;;;3.67;100.00
72685;BME280;61365;52.162;4.500;2023-01-16T11:34:37;97858.94;;;3.66;100.00
72685;BME280;61365;52.162;4.500;2023-01-16T11:37:13;97851.16;;;3.66;100.00
72685;BME280;61365;52.162;4.500;2023-01-16T11:39:47;97844.88;;;3.76;100.00
72685;BME280;61365;52.162;4.500;2023-01-16T11:42:17;97835.38;;;3.75;100.00
72685;BME280;61365;52.162;4.500;2023-01-16T11:45:22;97831.06;;;3.75;100.00
72685;BME280;61365;52.162;4.500;2023-01-16T11:48:13;97827.59;;;3.75;100.00
72685;BME280;61365;52.162;4.500;2023-01-16T11:50:55;97819.56;;;3.86;99.65
72685;BME280;61365;52.162;4.500;2023-01-16T11:53:34;97818.66;;;3.88;99.33
72685;BME280;61365;52.162;4.500;2023-01-16T12:14:32;97793.75;;;4.17;98.76
72685;BME280;61365;52.162;4.500;2023-01-16T12:20:24;97768.44;;;4.27;99.06
72685;BME280;61365;52.162;4.500;2023-01-16T12:28:51;97770.66;;;4.43;97.85
72685;BME280;61365;52.162;4.500;2023-01-16T12:37:17;97758.56;;;4.42;97.12
72685;BME280;61365;52.162;4.500;2023-01-16T12:46:02;97743.75;;;4.45;96.70
72685;BME280;61365;52.162;4.500;2023-01-16T12:48:42;97750.41;;;4.56;97.07
72685;BME280;61365;52.162;4.500;2023-01-16T13:03:36;97722.56;;;4.61;96.09
72685;BME280;61365;52.162;4.500;2023-01-16T13:06:15;97717.25;;;4.65;96.28
72685;BME280;61365;52.162;4.500;2023-01-16T13:08:55;97724.38;;;4.57;96.04
72685;BME280;61365;52.162;4.500;2023-01-16T13:11:31;97719.97;;;4.61;96.23
72685;BME280;61365;52.162;4.500;2023-01-16T13:14:22;97713.84;;;4.63;95.85
72685;BME280;61365;52.162;4.500;2023-01-16T13:17:02;97716.28;;;4.68;95.43
72685;BME280;61365;52.162;4.500;2023-01-16T13:19:38;97710.19;;;4.71;95.67
72685;BME280;61365;52.162;4.500;2023-01-16T13:25:02;97704.69;;;4.81;95.60
72685;BME280;61365;52.162;4.500;2023-01-16T13:27:44;97706.63;;;4.73;96.05
72685;BME280;61365;52.162;4.500;2023-01-16T13:30:18;97708.47;;;4.70;95.75
72685;BME280;61365;52.162;4.500;2023-01-16T13:32:58;97705.06;;;4.68;95.63
72685;BME280;61365;52.162;4.500;2023-01-16T13:41:46;97693.94;;;4.64;96.01
72685;BME280;61365;52.162;4.500;2023-01-16T13:44:24;97698.16;;;4.66;96.21
72685;BME280;61365;52.162;4.500;2023-01-16T13:47:37;97699.97;;;4.64;96.31
72685;BME280;61365;52.162;4.500;2023-01-16T13:50:15;97701.00;;;4.57;96.44
72685;BME280;61365;52.162;4.500;2023-01-16T13:52:47;97702.97;;;5.40;96.82
72685;BME280;61365;52.162;4.500;2023-01-16T13:55:38;97698.31;;;5.79;94.05
72685;BME280;61365;52.162;4.500;2023-01-16T14:00:44;97690.34;;;4.98;93.85
72685;BME280;61365;52.162;4.500;2023-01-16T14:08:51;97691.44;;;4.59;98.21
72685;BME280;61365;52.162;4.500;2023-01-16T14:11:56;97690.81;;;4.51;98.67
72685;BME280;61365;52.162;4.500;2023-01-16T14:14:34;97686.31;;;4.56;99.10
72685;BME280;61365;52.162;4.500;2023-01-16T14:18:02;97691.22;;;4.67;98.89
72685;BME280;61365;52.162;4.500;2023-01-16T14:20:50;97682.06;;;4.54;99.30
72685;BME280;61365;52.162;4.500;2023-01-16T14:23:34;97690.47;;;4.63;99.39
72685;BME280;61365;52.162;4.500;2023-01-16T14:29:22;97689.34;;;4.72;98.81
72685;BME280;61365;52.162;4.500;2023-01-16T14:32:00;97695.34;;;4.74;98.77
72685;BME280;61365;52.162;4.500;2023-01-16T14:37:42;97694.25;;;4.83;99.18
72685;BME280;61365;52.162;4.500;2023-01-16T14:40:22;97686.19;;;4.92;98.89
72685;BME280;61365;52.162;4.500;2023-01-16T14:43:23;97690.44;;;4.95;98.36
72685;BME280;61365;52.162;4.500;2023-01-16T14:46:33;97688.72;;;4.95;98.14
72685;BME280;61365;52.162;4.500;2023-01-16T14:49:38;97690.13;;;5.06;98.39
72685;BME280;61365;52.162;4.500;2023-01-16T14:52:48;97705.75;;;5.34;98.63
72685;BME280;61365;52.162;4.500;2023-01-16T14:55:43;97708.81;;;5.19;97.22
72685;BME280;61365;52.162;4.500;2023-01-16T14:58:20;97703.72;;;5.16;96.48
72685;BME280;61365;52.162;4.500;2023-01-16T15:01:00;97709.53;;;5.24;96.23
72685;BME280;61365;52.162;4.500;2023-01-16T15:03:59;97710.91;;;5.36;95.82
72685;BME280;61365;52.162;4.500;2023-01-16T15:06:40;97713.09;;;5.21;94.10
72685;BME280;61365;52.162;4.500;2023-01-16T15:09:16;97713.75;;;4.98;94.13
72685;BME280;61365;52.162;4.500;2023-01-16T15:11:52;97718.44;;;5.15;94.81
72685;BME280;61365;52.162;4.500;2023-01-16T15:14:26;97716.56;;;5.20;94.63
72685;BME280;61365;52.162;4.500;2023-01-16T15:22:57;97718.25;;;4.91;93.65
72685;BME280;61365;52.162;4.500;2023-01-16T15:31:13;97727.81;;;4.91;94.05
72685;BME280;61365;52.162;4.500;2023-01-16T15:33:42;97732.72;;;5.02;93.27
72685;BME280;61365;52.162;4.500;2023-01-16T15:36:25;97729.56;;;4.90;92.53
72685;BME280;61365;52.162;4.500;2023-01-16T15:39:01;97738.25;;;4.89;92.08
72685;BME280;61365;52.162;4.500;2023-01-16T15:41:37;97744.56;;;4.80;92.16
72685;BME280;61365;52.162;4.500;2023-01-16T15:44:26;97746.50;;;4.72;92.61
72685;BME280;61365;52.162;4.500;2023-01-16T15:50:36;97747.31;;;4.74;91.70
72685;BME280;61365;52.162;4.500;2023-01-16T15:53:07;97755.25;;;4.68;92.82
72685;BME280;61365;52.162;4.500;2023-01-16T15:55:46;97749.94;;;4.40;92.74
72685;BME280;61365;52.162;4.500;2023-01-16T15:58:21;97748.31;;;4.37;92.74
72685;BME280;61365;52.162;4.500;2023-01-16T16:01:01;97755.88;;;4.45;93.95
72685;BME280;61365;52.162;4.500;2023-01-16T16:04:01;97751.66;;;4.41;94.54
72685;BME280;61365;52.162;4.500;2023-01-16T16:06:29;97752.41;;;4.44;93.60
72685;BME280;61365;52.162;4.500;2023-01-16T16:09:03;97751.84;;;4.33;94.14
72685;BME280;61365;52.162;4.500;2023-01-16T16:11:32;97750.06;;;4.35;94.48
72685;BME280;61365;52.162;4.500;2023-01-16T16:14:23;97760.56;;;4.30;94.91
72685;BME280;61365;52.162;4.500;2023-01-16T16:17:24;97751.25;;;4.23;96.34
72685;BME280;61365;52.162;4.500;2023-01-16T16:20:37;97761.91;;;4.45;96.11
72685;BME280;61365;52.162;4.500;2023-01-16T16:25:52;97753.53;;;4.69;95.42